To NAV CANADA Home Page Login to a new session Search on AWWS site Feedback and Comments Disclaimer Vers la page française équivalente Tips FAQ What's new on the site To the Forecasts and Observations / NOTAM section To "File a Flight Plan" website Publications and other links Update of the User's profile FIC Telephone Numbers My Weather Data Folder Route Weather Data Regional Weather Data Local Weather Data To the Forecasts and Observations / NOTAM section
Request Generated 02/27/2015 at 07:26:58 UTC . Weather information available at that time is displayed.

METAR/TAF

SARNIA/SARNIA (CHRIS HADFIELD)/ON    (show WxCam)

METAR CYZR 270700Z AUTO 30006KT 9SM BKN026 M17/M20 A3036 RMK SLP296=
SPECI CYZR 270630Z AUTO 30005KT 9SM SCT024 M16/M20 A3036 RMK SLP295=
METAR CYZR 270600Z AUTO 30006KT 9SM OVC022 M16/M19 A3036 RMK SLP295=
SPECI CYZR 270549Z AUTO 31004KT 9SM OVC022 M16/M19 A3036 RMK SLP295=
SPECI CYZR 270520Z AUTO 31005KT 9SM -SN OVC022 M16/M19 A3035 RMK
SLP294=
SPECI CYZR 270520Z AUTO 31005KT 9SM -SN OVC022 M16/M19 A3035 RMK
SLP294=
METAR CYZR 270500Z AUTO 30005KT 9SM BKN020 M16/M18 A3035 RMK SLP293=

*** REMARK        : Forecast period has ended; this was the last TAF issued
*** REMARQUE : La période de prévision est échue; ceci était le dernier TAF qui a été émis
TAF CYZR 261939Z 2620/2703 35012KT P6SM SCT020 BKN100 TEMPO 2620/2624
5SM -SN BKN020
FM270000 36015KT P6SM FEW020 BKN100
RMK FCST BASED ON AUTO OBS. NXT FCST WILL BE ISSUED AT 271245Z=
Your time UTC time
Weather data provided by Environment Canada and NAV CANADA